Blountstown, Florida
Current Conditions -  °F | °C
As of 4:21 PM on Sunday 21 Dec 2014 (Local Time) from KMAI Reporting Station
Haze Haze  
Wind Chill: 12°   Ceiling: 400
Heat Index: 12°   Visibility: 4mi
Dew Point: 12°   Wind: 3mph
Humidity: 100%   Direction: 70°ENE
Pressure: 30.04"   Gusts: NA
Location:  30.44°N, 85.05°W
Report Text: KMAI 212221Z AUTO 07003KT 4SM BR OVC004 12/12 A3004 RMK AO2 T01220122 $
Loading
Personal Weather Stations






























Interactive Weather Map New forecast layout! Learn more

10-Day Weather Forecast

Advertisements
Track Severe Weather on mobile